Wetterstation Vordersexau
Wetterdaten: aktuell Dienstag, 09.04.2024 17:51
Datum Zeit Temp. A. Feuchte A. Luftdruck Regen Wind Richtung Richtung Taupunkt Windchill Windben
09.04.2024 17:51 9,5 C 75 % 1013,8 hPa 0,0 l/m 3,6 km/h (1 Bft) SO 135 5,3 C 9,5 C 3,6 km/h (1 Bft)
09.04.2024 17:21 9,0 C 78 % 1014,0 hPa 0,0 l/m 7,2 km/h (2 Bft) O-SO 112 5,4 C 8,4 C 9,7 km/h (2 Bft)
09.04.2024 16:51 8,6 C 79 % 1013,7 hPa 0,0 l/m 8,6 km/h (2 Bft) SO 135 5,2 C 7,0 C 13,3 km/h (3 Bft)
09.04.2024 16:21 8,6 C 79 % 1013,2 hPa 0,0 l/m 8,6 km/h (2 Bft) S-SO 158 5,2 C 7,0 C 13,3 km/h (3 Bft)
09.04.2024 15:51 9,0 C 80 % 1013,3 hPa 0,0 l/m 7,2 km/h (2 Bft) S 180 5,7 C 8,4 C 13,3 km/h (3 Bft)
09.04.2024 15:21 9,4 C 79 % 1012,9 hPa 0,0 l/m 8,6 km/h (2 Bft) W 270 5,9 C 7,8 C 17,3 km/h (3 Bft)
09.04.2024 14:51 9,2 C 80 % 1012,6 hPa 0,0 l/m 7,2 km/h (2 Bft) S-SW 202 5,9 C 8,6 C 11,2 km/h (2 Bft)
09.04.2024 14:21 8,9 C 85 % 1012,4 hPa 0,0 l/m 11,2 km/h (2 Bft) SW 225 6,5 C 5,7 C 14,8 km/h (3 Bft)
09.04.2024 13:51 9,0 C 88 % 1012,4 hPa 0,0 l/m 14,8 km/h (3 Bft) S-SW 202 7,1 C 4,0 C 22,0 km/h (4 Bft)
09.04.2024 13:21 8,9 C 86 % 1012,2 hPa 0,0 l/m 12,2 km/h (2 Bft) SW 225 6,7 C 5,1 C 17,3 km/h (3 Bft)
09.04.2024 12:51 8,8 C 90 % 1011,5 hPa 0,3 l/m 8,6 km/h (2 Bft) SW 225 7,3 C 7,2 C 13,3 km/h (3 Bft)
09.04.2024 12:21 8,9 C 89 % 1011,0 hPa 0,0 l/m 6,1 km/h (2 Bft) S 180 7,2 C 8,9 C 9,7 km/h (2 Bft)
09.04.2024 11:51 9,0 C 90 % 1010,9 hPa 0,3 l/m 11,2 km/h (2 Bft) SW 225 7,4 C 5,8 C 14,8 km/h (3 Bft)
09.04.2024 11:21 9,0 C 91 % 1011,5 hPa 0,3 l/m 13,3 km/h (3 Bft) S-SW 202 7,6 C 4,7 C 18,4 km/h (3 Bft)
09.04.2024 10:51 9,7 C 86 % 1010,9 hPa 0,3 l/m 11,2 km/h (2 Bft) S-SW 202 7,5 C 6,6 C 18,4 km/h (3 Bft)
09.04.2024 10:21 9,9 C 87 % 1010,9 hPa 0,0 l/m 11,2 km/h (2 Bft) W-SW 248 7,8 C 6,8 C 13,3 km/h (3 Bft)
09.04.2024 09:51 10,1 C 93 % 1010,1 hPa 1,2 l/m 0,0 km/h (0 Bft) N 0 9,0 C 10,1 C 2,5 km/h (1 Bft)
09.04.2024 09:21 10,5 C 89 % 1009,6 hPa 0,3 l/m 5,0 km/h (1 Bft) W 270 8,8 C 10,5 C 7,2 km/h (2 Bft)
09.04.2024 08:51 11,9 C 80 % 1007,9 hPa 0,0 l/m 12,2 km/h (2 Bft) W 270 8,6 C 8,6 C 20,9 km/h (4 Bft)
09.04.2024 08:21 16,9 C 65 % 1004,8 hPa 0,0 l/m 9,7 km/h (2 Bft) W-SW 248 10,3 C 15,3 C 13,3 km/h (3 Bft)
09.04.2024 07:51 17,0 C 63 % 1004,0 hPa 0,0 l/m 8,6 km/h (2 Bft) SW 225 9,9 C 15,9 C 13,3 km/h (3 Bft)
09.04.2024 07:21 17,5 C 58 % 1003,4 hPa 0,0 l/m 9,7 km/h (2 Bft) S 180 9,1 C 16,0 C 17,3 km/h (3 Bft)
09.04.2024 06:51 17,9 C 57 % 1003,2 hPa 0,0 l/m 9,7 km/h (2 Bft) S-SO 158 9,3 C 16,4 C 14,8 km/h (3 Bft)
09.04.2024 06:21 18,9 C 51 % 1002,5 hPa 0,0 l/m 7,2 km/h (2 Bft) S 180 8,5 C 18,5 C 9,7 km/h (2 Bft)
09.04.2024 05:51 19,3 C 48 % 1001,9 hPa 0,0 l/m 6,1 km/h (2 Bft) S 180 8,0 C 19,3 C 7,2 km/h (2 Bft)
09.04.2024 05:21 19,4 C 45 % 1001,5 hPa 0,0 l/m 7,2 km/h (2 Bft) S 180 7,2 C 19,1 C 13,3 km/h (3 Bft)
09.04.2024 04:51 19,6 C 43 % 1001,1 hPa 0,0 l/m 5,0 km/h (1 Bft) S-SO 158 6,7 C 19,6 C 7,2 km/h (2 Bft)
09.04.2024 04:21 16,1 C 65 % 1001,0 hPa 0,0 l/m 2,5 km/h (1 Bft) N-NO 22 9,5 C 16,1 C 6,1 km/h (2 Bft)
09.04.2024 03:51 18,8 C 50 % 1000,3 hPa 0,0 l/m 2,5 km/h (1 Bft) SW 225 8,2 C 18,8 C 3,6 km/h (1 Bft)
09.04.2024 03:21 15,8 C 71 % 1000,1 hPa 0,0 l/m 2,5 km/h (1 Bft) N 0 10,6 C 15,8 C 6,1 km/h (2 Bft)
09.04.2024 02:51 15,6 C 75 % 999,8 hPa 0,0 l/m 2,5 km/h (1 Bft) NO 45 11,2 C 15,6 C 3,6 km/h (1 Bft)
09.04.2024 02:21 15,7 C 72 % 998,6 hPa 0,0 l/m 1,1 km/h (1 Bft) N 0 10,7 C 15,7 C 2,5 km/h (1 Bft)
09.04.2024 01:51 14,9 C 80 % 999,0 hPa 0,0 l/m 0,0 km/h (0 Bft) SW 225 11,5 C 14,9 C 0,0 km/h (0 Bft)
09.04.2024 01:21 16,2 C 69 % 998,4 hPa 0,0 l/m 1,1 km/h (1 Bft) W-NW 292 10,5 C 16,2 C 3,6 km/h (1 Bft)
09.04.2024 00:51 16,7 C 67 % 998,3 hPa 0,0 l/m 2,5 km/h (1 Bft) N-NO 22 10,5 C 16,7 C 3,6 km/h (1 Bft)
09.04.2024 00:21 16,4 C 68 % 998,0 hPa 0,0 l/m 1,1 km/h (1 Bft) NO 45 10,5 C 16,4 C 2,5 km/h (1 Bft)
08.04.2024 23:51 16,3 C 69 % 998,2 hPa 0,0 l/m 1,1 km/h (1 Bft) N-NO 22 10,6 C 16,3 C 2,5 km/h (1 Bft)
08.04.2024 23:21 17,0 C 68 % 998,9 hPa 0,0 l/m 3,6 km/h (1 Bft) S 180 11,0 C 17,0 C 6,1 km/h (2 Bft)
08.04.2024 22:51 17,5 C 61 % 998,9 hPa 0,0 l/m 0,0 km/h (0 Bft) NW 315 9,9 C 17,5 C 2,5 km/h (1 Bft)
08.04.2024 22:21 17,3 C 68 % 998,8 hPa 0,0 l/m 0,0 km/h (0 Bft) O-SO 112 11,3 C 17,3 C 0,0 km/h (0 Bft)
08.04.2024 21:51 18,5 C 59 % 998,7 hPa 0,0 l/m 0,0 km/h (0 Bft) O-NO 68 10,3 C 18,5 C 2,5 km/h (1 Bft)
08.04.2024 21:21 19,5 C 58 % 999,1 hPa 0,0 l/m 1,1 km/h (1 Bft) N-NO 22 11,0 C 19,5 C 2,5 km/h (1 Bft)
08.04.2024 20:51 19,4 C 62 % 999,2 hPa 0,0 l/m 5,0 km/h (1 Bft) O-SO 112 11,9 C 19,4 C 6,1 km/h (2 Bft)
08.04.2024 20:21 21,0 C 54 % 998,4 hPa 0,0 l/m 1,1 km/h (1 Bft) N-NO 22 11,3 C 21,0 C 2,5 km/h (1 Bft)
08.04.2024 19:51 22,9 C 54 % 998,0 hPa 0,0 l/m 1,1 km/h (1 Bft) S-SO 158 13,1 C 22,9 C 2,5 km/h (1 Bft)
08.04.2024 19:21 23,5 C 49 % 997,8 hPa 0,0 l/m 0,0 km/h (0 Bft) W-NW 292 12,2 C 23,5 C 0,0 km/h (0 Bft)
08.04.2024 18:51 24,2 C 46 % 997,3 hPa 0,0 l/m 0,0 km/h (0 Bft) NO 45 11,8 C 24,2 C 0,0 km/h (0 Bft)
08.04.2024 18:21 25,4 C 41 % 997,0 hPa 0,0 l/m 0,0 km/h (0 Bft) NO 45 11,2 C 25,4 C 2,5 km/h (1 Bft)
_ Min-Zeit 16:21 18:21 18:21 - 18:21 - - 16:21 13:51 18:51
Minimum _ 8,6 C 41 % 997,0 hPa - 0,0 km/h (0 Bft) - - 5,2 C 4,0 C 0,0 km/h (0 Bft)
_ Max-Zeit 18:21 09:51 17:21 09:51 13:51 - - 19:51 18:21 13:51
Maximum _ 25,4 C 93 % 1014,0 hPa 1,2 l/m 14,8 km/h
S-SW (3 Bft)
- - 13,1 C 25,4 C 22,0 km/h
S-SW (4 Bft)
Durchschnitt _ 15,5 C 68 % 1004,2 hPa #2,7 l/m 5,1 km/h (1 Bft) S - 9,0 C 14,6 C 8,2 km/h (2 Bft)
www.sexauwetter.de